Карточка аэропорта UMKK

Внимание!
Информация на этой странице в стадии наполнения.
Если вы не увидели какой-то информации, или заметили неточность - пожалуйста сообщите нам!
Спасибо!
Команда RU-STAFF
Название аэропортаХраброво
Название аэропорта (англ.)Khrabrovo
Превышение43 ft. (13.1 m.)
Координаты54°53.4', 20°35.55'
Высота перехода4000ft
Эшелон переходаFL50 (QNH>=1013hPa); FL60 (QNH<1013hPa); FL50 (QNH<977hPa);
Коды ответчика6620-6637
Зона ОрВДКалининград РПИ (UMKK)
Данные METARUMKK 220000Z 25004MPS 9000 OVC008 05/05 Q1007 R24/290095 NOSIG RMK QFE754/1005
Проноз погоды (TAF)UMKK 211956Z 2121/2221 25003G10MPS 6000 BKN006 OVC011 TEMPO 2121/2201 2100 -SHRA BR BKN003 SCT016CB BECMG 2201/2204 17003G08MPS PROB40 TEMPO 2204/2209 0300 PRFG BKN002 BECMG 2209/2212 16007G13MPS FEW010 BKN016
NOTAMshow/hide NOTAM
AWOS   TABLE

Информация о ВПП

ВПП Длина ВПП (м.) Покрытие Курс ВПП Частота ILS
243350Асфальтобетон240109.5
063350Асфальтобетон60110.3

Диспетчерские позиции

Позывной Наименование органа УВД Частота
UMKK_TWRКалининград-Вышка127.2
UMKK_APPКалининград-Подход126.0



Спутниковое изображение